Time;durP1;ratioP1;P1;durP2;ratioP2;P2;SDS_P1;SDS_P2;PMS_P1;PMS_P2;Temp;Humidity;BMP_temperature;BMP_pressure;BME280_temperature;BME280_humidity;BME280_pressure;Samples;Min_cycle;Max_cycle;Signal;HPM_P1;HPM_P2
2023/05/16 00:01:18;;;;;;;12.17;10.33;;;;;;;13.66;84.50;98360.13;4984588;28;106877;-72
2023/05/16 00:03:48;;;;;;;9.93;8.93;;;;;;;13.73;85.14;98357.72;4989782;28;109720;-72
2023/05/16 00:06:17;;;;;;;10.10;9.17;;;;;;;13.63;85.52;98354.25;4994314;28;102924;-73
2023/05/16 00:08:46;;;;;;;8.77;8.00;;;;;;;13.69;85.46;98353.69;4991267;28;104166;-72
2023/05/16 00:11:14;;;;;;;8.40;7.60;;;;;;;13.54;86.64;98355.06;4992179;28;105059;-72
2023/05/16 00:13:41;;;;;;;11.97;10.40;;;;;;;13.49;86.06;98350.19;4990387;28;103277;-73
2023/05/16 00:16:10;;;;;;;10.20;9.23;;;;;;;13.56;85.96;98353.13;4990701;28;102660;-73
2023/05/16 00:18:38;;;;;;;11.70;10.50;;;;;;;13.55;86.17;98359.41;4976753;28;103088;-73
2023/05/16 00:21:06;;;;;;;10.57;9.57;;;;;;;13.60;86.24;98354.50;4987962;28;113005;-73
2023/05/16 00:23:34;;;;;;;10.43;9.47;;;;;;;13.54;86.88;98357.72;4991369;28;103296;-73
2023/05/16 00:26:03;;;;;;;9.97;9.00;;;;;;;13.63;86.42;98362.22;4989045;28;102644;-73
2023/05/16 00:28:31;;;;;;;10.03;9.13;;;;;;;13.69;85.68;98351.88;4989713;28;102662;-72
2023/05/16 00:31:00;;;;;;;9.20;8.40;;;;;;;13.66;85.81;98346.00;4980204;28;104522;-72
2023/05/16 00:33:27;;;;;;;8.33;7.53;;;;;;;13.67;85.98;98348.50;5003762;28;103119;-73
2023/05/16 00:35:55;;;;;;;10.17;8.50;;;;;;;13.72;85.45;98340.16;4991577;28;102702;-72
2023/05/16 00:38:25;;;;;;;9.63;8.63;;;;;;;13.76;84.93;98345.03;5000624;28;102936;-72
2023/05/16 00:40:52;;;;;;;8.00;7.30;;;;;;;13.77;85.13;98348.53;4990625;28;104491;-73
2023/05/16 00:43:22;;;;;;;11.00;9.83;;;;;;;13.71;85.39;98343.78;4994404;28;103332;-73
2023/05/16 00:45:50;;;;;;;10.00;9.13;;;;;;;13.70;85.50;98342.94;4992347;28;102627;-72
2023/05/16 00:48:19;;;;;;;11.30;10.20;;;;;;;13.68;85.34;98344.88;4988474;28;102764;-73
2023/05/16 00:50:48;;;;;;;9.10;8.27;;;;;;;13.77;85.09;98337.91;4991620;28;114867;-72
2023/05/16 00:53:15;;;;;;;13.80;11.23;;;;;;;13.46;86.20;98344.31;4986169;28;103301;-72
2023/05/16 00:55:47;;;;;;;12.10;10.90;;;;;;;13.45;86.29;98350.56;4981489;28;103241;-72
2023/05/16 00:58:15;;;;;;;8.70;7.90;;;;;;;13.60;85.66;98341.25;5000138;28;103642;-73
2023/05/16 01:00:46;;;;;;;9.23;7.93;;;;;;;13.39;87.46;98344.00;4989667;28;112489;-72
2023/05/16 01:03:15;;;;;;;11.57;10.47;;;;;;;13.60;86.02;98346.56;4982216;28;103185;-72
2023/05/16 01:05:44;;;;;;;11.13;10.03;;;;;;;13.58;85.19;98345.88;5002412;28;102838;-73
2023/05/16 01:08:12;;;;;;;10.17;9.10;;;;;;;13.55;84.91;98359.41;4985818;28;102721;-73
2023/05/16 01:11:00;;;;;;;9.70;8.80;;;;;;;13.43;85.07;98349.88;4991243;28;102808;-72
2023/05/16 01:13:36;;;;;;;9.83;8.83;;;;;;;13.40;85.23;98358.09;4976761;28;107140;-73
2023/05/16 01:16:13;;;;;;;11.33;10.23;;;;;;;13.08;86.63;98351.19;4997623;28;102849;-73
2023/05/16 01:18:46;;;;;;;11.50;10.27;;;;;;;13.08;87.52;98356.47;4991226;28;102671;-73
2023/05/16 01:21:22;;;;;;;12.07;10.80;;;;;;;13.11;87.35;98344.75;4991537;28;113591;-72
2023/05/16 01:23:59;;;;;;;12.83;11.53;;;;;;;12.87;88.11;98353.03;4991442;28;103125;-72
2023/05/16 01:26:31;;;;;;;12.73;11.53;;;;;;;12.93;88.78;98352.50;5007954;28;102743;-72
2023/05/16 01:29:02;;;;;;;15.00;13.60;;;;;;;12.82;88.69;98355.25;4993772;28;102925;-72
2023/05/16 01:31:30;;;;;;;15.10;13.63;;;;;;;12.98;87.76;98358.25;4981108;28;105924;-73
2023/05/16 01:33:59;;;;;;;14.20;12.90;;;;;;;13.01;87.29;98360.63;4994295;28;102704;-72
2023/05/16 01:36:35;;;;;;;13.63;12.33;;;;;;;13.06;87.31;98353.09;4991516;28;102896;-73
2023/05/16 01:39:11;;;;;;;19.80;17.83;;;;;;;13.00;87.22;98353.63;4997140;28;102756;-71
2023/05/16 01:41:48;;;;;;;17.50;15.70;;;;;;;13.07;86.95;98354.81;4988926;28;103378;-72
2023/05/16 01:44:25;;;;;;;16.50;14.80;;;;;;;13.23;86.49;98355.16;4993708;28;105965;-72
2023/05/16 01:46:56;;;;;;;17.00;15.37;;;;;;;13.19;86.55;98352.91;4994457;28;102722;-73
2023/05/16 01:49:34;;;;;;;15.20;13.70;;;;;;;13.26;86.45;98349.56;4997891;28;103690;-72
2023/05/16 01:52:07;;;;;;;19.97;17.87;;;;;;;13.31;86.31;98352.66;5004877;28;111381;-72
2023/05/16 01:54:39;;;;;;;22.17;19.37;;;;;;;13.39;86.15;98359.09;4989889;28;103188;-72
2023/05/16 01:57:09;;;;;;;22.43;20.23;;;;;;;13.44;85.87;98354.22;4977428;28;102859;-73
2023/05/16 01:59:39;;;;;;;23.83;19.10;;;;;;;13.38;86.14;98352.09;4996510;28;102630;-72
2023/05/16 02:02:10;;;;;;;18.73;16.33;;;;;;;13.39;86.26;98353.78;5000877;28;104260;-73
2023/05/16 02:04:38;;;;;;;18.97;17.07;;;;;;;13.51;85.80;98360.66;4987582;28;109806;-72
2023/05/16 02:07:08;;;;;;;20.47;18.43;;;;;;;13.50;85.56;98357.16;5004064;28;102723;-73
2023/05/16 02:09:37;;;;;;;19.10;17.17;;;;;;;13.46;86.19;98349.59;4986704;28;103298;-72
2023/05/16 02:12:08;;;;;;;23.00;20.40;;;;;;;13.40;86.22;98350.16;4997045;28;109535;-72
2023/05/16 02:14:37;;;;;;;22.93;20.53;;;;;;;13.41;86.28;98346.53;4991972;28;103142;-73
2023/05/16 02:17:04;;;;;;;23.70;21.17;;;;;;;13.33;86.58;98348.03;4973369;28;102754;-73
2023/05/16 02:19:33;;;;;;;23.70;21.07;;;;;;;13.42;86.15;98350.88;4984402;28;102769;-73
2023/05/16 02:22:02;;;;;;;26.97;24.07;;;;;;;13.38;85.58;98357.41;4984348;28;113058;-73
2023/05/16 02:24:33;;;;;;;27.07;24.17;;;;;;;13.32;86.28;98354.34;4982295;28;104105;-73
2023/05/16 02:27:01;;;;;;;22.53;20.13;;;;;;;13.39;86.24;98359.91;4981151;28;102973;-72
2023/05/16 02:29:30;;;;;;;24.93;22.33;;;;;;;13.44;86.24;98362.19;4976670;28;103002;-72
2023/05/16 02:31:58;;;;;;;21.20;18.90;;;;;;;13.46;85.86;98355.75;4991649;28;103616;-72
2023/05/16 02:34:27;;;;;;;27.43;24.60;;;;;;;13.25;86.22;98355.84;4985032;28;103158;-73
2023/05/16 02:36:55;;;;;;;26.80;23.80;;;;;;;13.24;86.83;98366.59;4989355;28;102732;-73
2023/05/16 02:39:22;;;;;;;27.87;24.93;;;;;;;13.30;86.39;98356.25;4985154;28;102793;-73
2023/05/16 02:41:51;;;;;;;27.37;23.80;;;;;;;13.37;86.00;98356.56;4985493;28;103330;-73
2023/05/16 02:44:19;;;;;;;27.67;22.33;;;;;;;13.40;86.25;98363.41;4983403;28;103118;-72
2023/05/16 02:46:48;;;;;;;27.97;24.10;;;;;;;13.48;86.25;98358.25;4983756;28;102936;-72
2023/05/16 02:49:16;;;;;;;29.60;25.47;;;;;;;13.21;87.36;98359.75;4979432;28;102817;-72
2023/05/16 02:51:44;;;;;;;25.97;22.97;;;;;;;13.27;88.24;98364.53;4987771;28;112373;-72
2023/05/16 02:54:13;;;;;;;35.00;28.00;;;;;;;13.24;87.30;98363.94;4994802;28;104227;-72
2023/05/16 02:56:41;;;;;;;30.90;25.90;;;;;;;13.07;88.23;98370.75;5000750;28;102707;-73
2023/05/16 02:59:09;;;;;;;28.33;25.27;;;;;;;13.19;88.19;98369.63;4996873;28;104809;-73
2023/05/16 03:01:38;;;;;;;23.17;20.67;;;;;;;13.26;87.42;98376.09;4977470;28;103673;-73
2023/05/16 03:04:10;;;;;;;32.03;25.17;;;;;;;13.29;87.04;98364.38;4980724;28;103408;-72
2023/05/16 03:06:38;;;;;;;27.93;24.90;;;;;;;13.43;86.42;98376.41;4979671;28;102743;-73
2023/05/16 03:09:07;;;;;;;30.67;26.53;;;;;;;13.32;86.29;98375.56;4980476;28;103145;-73
2023/05/16 03:11:37;;;;;;;32.63;25.50;;;;;;;13.29;86.79;98373.19;4984278;28;103311;-73
2023/05/16 03:14:05;;;;;;;25.70;21.27;;;;;;;13.30;86.65;98369.53;4980636;28;103123;-73
2023/05/16 03:16:33;;;;;;;34.87;27.97;;;;;;;13.16;87.21;98369.94;4982406;28;102695;-73
2023/05/16 03:19:01;;;;;;;25.57;21.50;;;;;;;13.24;87.01;98367.44;4983980;28;103190;-73
2023/05/16 03:21:30;;;;;;;29.63;24.10;;;;;;;13.26;86.87;98365.50;4984288;28;103140;-73
2023/05/16 03:23:58;;;;;;;25.23;22.23;;;;;;;13.39;86.07;98377.69;4992182;28;102993;-73
2023/05/16 03:26:26;;;;;;;35.33;29.10;;;;;;;13.30;86.24;98366.06;4999432;28;102967;-73
2023/05/16 03:28:54;;;;;;;33.20;24.93;;;;;;;13.26;86.88;98364.66;4994872;28;102660;-72
2023/05/16 03:31:22;;;;;;;36.13;27.80;;;;;;;13.27;87.38;98372.47;4995586;28;103351;-73
2023/05/16 03:33:50;;;;;;;34.93;27.13;;;;;;;13.21;87.46;98372.16;5005407;28;103104;-73
2023/05/16 03:36:18;;;;;;;34.50;27.83;;;;;;;13.34;86.84;98373.59;4981100;28;102673;-73
2023/05/16 03:38:47;;;;;;;35.93;30.50;;;;;;;13.16;88.03;98375.25;4985769;28;102909;-73
2023/05/16 03:41:15;;;;;;;31.10;25.53;;;;;;;13.11;88.96;98372.13;4981715;28;105088;-73
2023/05/16 03:43:43;;;;;;;32.37;26.83;;;;;;;13.17;88.33;98371.59;4983100;28;103020;-74
2023/05/16 03:46:11;;;;;;;38.83;30.90;;;;;;;13.30;87.42;98366.88;4991648;28;102712;-73
2023/05/16 03:48:39;;;;;;;34.63;27.90;;;;;;;13.17;88.89;98365.44;4980508;28;103295;-73
2023/05/16 03:51:07;;;;;;;39.73;31.73;;;;;;;13.16;88.95;98369.09;4988006;28;104590;-73
2023/05/16 03:53:35;;;;;;;44.67;33.03;;;;;;;13.07;90.11;98368.09;4988576;28;106929;-73
2023/05/16 03:56:05;;;;;;;38.73;31.53;;;;;;;13.20;89.45;98371.31;4983482;28;103516;-73
2023/05/16 03:58:32;;;;;;;46.10;32.63;;;;;;;13.21;89.54;98373.03;4977858;28;102663;-73
2023/05/16 04:01:00;;;;;;;39.70;30.37;;;;;;;13.06;90.61;98374.31;4985468;28;103326;-73
2023/05/16 04:03:29;;;;;;;42.50;33.57;;;;;;;13.15;90.05;98373.56;4980122;28;102942;-73
2023/05/16 04:05:57;;;;;;;44.07;35.47;;;;;;;13.17;89.91;98374.25;4985150;28;102677;-73
2023/05/16 04:08:27;;;;;;;45.63;34.07;;;;;;;13.28;89.53;98384.75;4977177;28;102826;-73
2023/05/16 04:10:55;;;;;;;40.13;32.10;;;;;;;13.17;90.31;98381.38;4983935;28;103716;-73
2023/05/16 04:13:25;;;;;;;37.47;29.40;;;;;;;13.29;89.70;98391.75;4974221;28;105637;-73
2023/05/16 04:15:53;;;;;;;39.43;29.97;;;;;;;13.42;89.10;98395.97;4994993;28;102691;-73
2023/05/16 04:18:21;;;;;;;38.60;30.97;;;;;;;13.48;88.50;98395.41;4990698;28;102927;-73
2023/05/16 04:20:49;;;;;;;39.67;31.60;;;;;;;13.41;88.92;98391.63;4973398;28;103160;-74
2023/05/16 04:23:17;;;;;;;45.53;34.20;;;;;;;13.54;88.12;98392.22;4982569;28;105992;-73
2023/05/16 04:25:45;;;;;;;44.53;34.50;;;;;;;13.48;88.72;98398.91;4992234;28;102631;-73
2023/05/16 04:28:13;;;;;;;46.17;33.07;;;;;;;13.50;88.67;98398.78;4981598;28;102786;-73
2023/05/16 04:30:42;;;;;;;38.47;29.93;;;;;;;13.52;88.81;98399.50;4987443;28;104410;-73
2023/05/16 04:33:10;;;;;;;40.50;30.47;;;;;;;13.63;88.30;98400.22;4979867;28;103174;-73
2023/05/16 04:35:38;;;;;;;44.03;34.20;;;;;;;13.61;88.30;98402.16;4987704;28;102639;-74
2023/05/16 04:38:06;;;;;;;46.03;34.47;;;;;;;13.76;87.76;98405.25;4974243;28;103447;-72
2023/05/16 04:40:34;;;;;;;41.80;33.63;;;;;;;13.81;87.36;98395.88;4980549;28;104393;-72
2023/05/16 04:43:02;;;;;;;44.87;33.27;;;;;;;13.83;87.50;98401.06;4982780;28;105911;-72
2023/05/16 04:45:30;;;;;;;41.87;33.47;;;;;;;13.71;87.86;98404.81;4977349;28;102963;-72
2023/05/16 04:48:00;;;;;;;43.90;33.77;;;;;;;13.74;87.96;98404.56;4985128;28;104165;-72
2023/05/16 04:50:30;;;;;;;44.23;34.13;;;;;;;13.84;87.77;98414.19;4980656;28;104992;-72
2023/05/16 04:52:58;;;;;;;40.73;33.37;;;;;;;13.74;88.09;98412.50;4979479;28;103046;-72
2023/05/16 04:55:26;;;;;;;47.00;33.87;;;;;;;13.80;88.35;98411.97;4988802;28;102596;-72
2023/05/16 04:57:55;;;;;;;49.93;34.30;;;;;;;13.64;89.04;98420.44;4991443;27;103116;-72
2023/05/16 05:00:23;;;;;;;41.27;32.13;;;;;;;13.82;88.28;98421.47;4970255;28;106167;-72
2023/05/16 05:02:51;;;;;;;42.73;33.37;;;;;;;13.84;88.31;98414.19;4994504;28;103243;-72
2023/05/16 05:05:20;;;;;;;45.47;35.17;;;;;;;13.66;89.24;98420.34;5007081;28;102863;-71
2023/05/16 05:07:49;;;;;;;40.47;30.83;;;;;;;13.69;90.18;98425.38;4976399;28;102855;-71
2023/05/16 05:10:17;;;;;;;44.20;34.00;;;;;;;13.76;89.72;98427.31;5007046;28;103961;-71
2023/05/16 05:12:45;;;;;;;44.50;35.47;;;;;;;13.62;89.69;98427.72;4982846;28;105941;-72
2023/05/16 05:15:13;;;;;;;49.27;36.40;;;;;;;13.48;90.07;98436.06;5001989;28;102604;-70
2023/05/16 05:17:41;;;;;;;46.43;36.03;;;;;;;13.64;90.17;98432.91;5010096;28;102708;-71
2023/05/16 05:20:10;;;;;;;46.07;34.40;;;;;;;13.71;90.04;98434.03;5007113;28;103430;-71
2023/05/16 05:22:40;;;;;;;42.87;32.97;;;;;;;13.73;89.73;98432.91;4999259;28;106031;-71
2023/05/16 05:25:08;;;;;;;50.70;37.73;;;;;;;13.39;91.31;98441.34;5009271;28;103221;-71
2023/05/16 05:27:36;;;;;;;48.40;35.17;;;;;;;13.46;91.80;98434.53;5011523;27;102784;-71
2023/05/16 05:30:05;;;;;;;48.20;35.73;;;;;;;13.47;92.04;98434.41;4992212;28;103218;-70
2023/05/16 05:32:34;;;;;;;46.47;34.63;;;;;;;13.70;90.27;98437.66;4989981;28;104507;-71
2023/05/16 05:35:02;;;;;;;46.87;34.87;;;;;;;13.57;90.91;98439.72;4998893;28;102749;-72
2023/05/16 05:37:30;;;;;;;49.50;35.37;;;;;;;13.73;90.36;98432.06;5007581;28;102639;-71
2023/05/16 05:40:00;;;;;;;41.67;32.83;;;;;;;13.83;89.98;98433.78;4999741;28;103572;-72
2023/05/16 05:42:27;;;;;;;49.93;35.27;;;;;;;13.85;89.31;98431.81;4996499;28;103103;-71
2023/05/16 05:44:55;;;;;;;44.63;35.40;;;;;;;13.84;90.35;98423.97;5005692;28;102737;-71
2023/05/16 05:47:23;;;;;;;47.53;36.10;;;;;;;13.79;90.11;98432.38;5005175;28;102892;-70
2023/05/16 05:49:51;;;;;;;46.30;35.73;;;;;;;13.85;89.28;98433.63;5008375;28;103409;-70
2023/05/16 05:52:19;;;;;;;47.30;36.13;;;;;;;13.63;91.36;98431.22;5003189;28;103170;-70
2023/05/16 05:54:47;;;;;;;43.50;35.37;;;;;;;13.74;90.50;98433.75;5001906;28;102510;-70
2023/05/16 05:57:17;;;;;;;46.63;36.27;;;;;;;13.69;90.58;98436.84;5011996;28;102769;-70
2023/05/16 05:59:44;;;;;;;44.47;33.23;;;;;;;13.81;89.88;98443.69;5017730;28;107865;-69
2023/05/16 06:02:13;;;;;;;41.33;31.77;;;;;;;14.18;88.31;98443.88;5011690;28;103315;-70
2023/05/16 06:04:42;;;;;;;37.40;29.63;;;;;;;14.41;87.46;98442.66;5013989;28;102731;-70
2023/05/16 06:07:10;;;;;;;38.30;30.50;;;;;;;14.21;87.68;98451.56;4997867;28;102721;-70
2023/05/16 06:09:37;;;;;;;43.87;34.13;;;;;;;14.36;86.12;98452.88;5013172;28;104040;-70
2023/05/16 06:12:06;;;;;;;41.13;32.00;;;;;;;13.92;86.38;98448.06;5012473;28;103525;-70
2023/05/16 06:14:35;;;;;;;43.13;32.17;;;;;;;13.82;88.25;98458.66;5016453;28;102554;-70
2023/05/16 06:17:03;;;;;;;44.13;33.07;;;;;;;13.97;86.82;98463.56;5019858;28;102595;-70
2023/05/16 06:19:31;;;;;;;39.30;30.87;;;;;;;14.12;86.89;98464.84;4999646;28;103970;-70
2023/05/16 06:21:59;;;;;;;34.17;29.33;;;;;;;14.14;86.61;98461.09;5010632;28;103173;-70
2023/05/16 06:24:28;;;;;;;35.97;27.80;;;;;;;14.48;86.58;98459.69;5005444;28;102704;-70
2023/05/16 06:26:56;;;;;;;35.53;29.37;;;;;;;14.66;84.32;98461.63;5014787;28;102806;-70
2023/05/16 06:29:24;;;;;;;35.90;27.73;;;;;;;14.19;86.50;98464.16;5013333;28;103569;-70
2023/05/16 06:31:54;;;;;;;29.43;22.57;;;;;;;14.47;86.56;98460.69;5016094;28;103261;-70
2023/05/16 06:34:26;;;;;;;39.33;30.10;;;;;;;14.49;85.24;98465.84;5018710;28;102592;-70
2023/05/16 06:36:54;;;;;;;32.83;27.20;;;;;;;14.59;85.08;98464.03;5010169;28;102766;-70
2023/05/16 06:39:22;;;;;;;35.47;26.67;;;;;;;14.72;84.25;98469.06;5021262;28;103300;-70
2023/05/16 06:41:50;;;;;;;31.57;26.77;;;;;;;14.54;85.33;98476.91;5002285;28;103292;-70
2023/05/16 06:44:22;;;;;;;38.07;30.50;;;;;;;13.87;86.84;98479.47;5009859;28;102629;-71
2023/05/16 06:46:51;;;;;;;29.63;24.67;;;;;;;14.15;86.82;98481.34;5007438;28;102758;-70
2023/05/16 06:49:20;;;;;;;32.47;27.10;;;;;;;14.31;84.53;98479.00;5013080;28;103307;-70
2023/05/16 06:51:48;;;;;;;28.63;23.70;;;;;;;14.19;84.39;98479.25;4991472;28;112100;-70
2023/05/16 06:54:16;;;;;;;29.57;24.70;;;;;;;14.11;85.36;98479.09;5009564;28;102619;-70
2023/05/16 06:56:45;;;;;;;33.80;27.17;;;;;;;13.96;86.88;98478.66;5008793;28;102692;-71
2023/05/16 06:59:13;;;;;;;31.90;25.40;;;;;;;13.55;87.04;98481.50;5007455;28;103418;-70
2023/05/16 07:01:41;;;;;;;28.13;24.17;;;;;;;13.75;87.20;98478.75;4992086;28;104452;-70
2023/05/16 07:04:09;;;;;;;26.20;22.13;;;;;;;14.36;85.72;98474.13;5011239;28;102534;-71
2023/05/16 07:06:39;;;;;;;26.97;22.23;;;;;;;13.98;84.69;98479.34;5020693;27;102735;-72
2023/05/16 07:09:07;;;;;;;31.07;22.30;;;;;;;13.73;86.77;98480.69;5009545;28;103345;-72
2023/05/16 07:11:35;;;;;;;24.90;21.10;;;;;;;13.62;86.27;98493.22;5013165;28;103591;-72
2023/05/16 07:14:03;;;;;;;21.87;19.73;;;;;;;13.63;86.15;98495.78;4990653;28;102665;-72
2023/05/16 07:16:31;;;;;;;22.97;20.57;;;;;;;13.88;85.26;98499.75;5007692;28;102671;-72
2023/05/16 07:18:59;;;;;;;22.77;19.43;;;;;;;13.75;86.19;98499.97;5004256;28;103294;-72
2023/05/16 07:21:28;;;;;;;22.37;19.53;;;;;;;13.48;87.04;98501.56;5010102;28;103192;-71
2023/05/16 07:23:58;;;;;;;19.90;17.83;;;;;;;13.36;86.80;98499.00;5005245;28;105074;-71
2023/05/16 07:26:29;;;;;;;19.80;16.77;;;;;;;13.53;86.68;98502.03;5010247;28;102877;-72
2023/05/16 07:28:57;;;;;;;18.03;16.13;;;;;;;14.01;83.32;98500.31;5003285;28;114060;-72
2023/05/16 07:31:25;;;;;;;16.07;14.50;;;;;;;13.57;84.96;98500.75;4992925;28;103147;-72
2023/05/16 07:33:53;;;;;;;16.23;14.53;;;;;;;13.90;84.18;98503.09;4997239;28;102583;-70
2023/05/16 07:36:21;;;;;;;15.03;13.33;;;;;;;13.97;82.67;98498.94;5010778;28;102701;-71
2023/05/16 07:38:49;;;;;;;13.77;12.37;;;;;;;14.06;82.08;98515.88;4990066;28;106081;-72
2023/05/16 07:41:18;;;;;;;14.30;12.80;;;;;;;14.08;81.91;98506.78;5009155;28;103097;-70
2023/05/16 07:43:46;;;;;;;14.40;12.90;;;;;;;13.84;82.31;98515.09;5010234;28;102710;-71
2023/05/16 07:46:14;;;;;;;15.93;13.37;;;;;;;13.95;82.68;98515.00;4998818;28;102659;-72
2023/05/16 07:48:45;;;;;;;14.43;12.93;;;;;;;14.11;81.12;98511.81;4982449;28;105004;-72
2023/05/16 07:51:13;;;;;;;11.17;10.07;;;;;;;14.27;82.76;98512.13;5006943;28;103022;-73
2023/05/16 07:53:41;;;;;;;13.43;12.13;;;;;;;14.24;80.89;98516.84;5009489;28;103353;-72
2023/05/16 07:56:09;;;;;;;14.27;12.90;;;;;;;14.45;79.70;98521.13;5005075;28;102584;-72
2023/05/16 07:58:38;;;;;;;13.87;12.37;;;;;;;14.26;80.50;98523.72;4999702;28;103368;-72
2023/05/16 08:01:06;;;;;;;13.37;12.07;;;;;;;13.92;80.59;98519.75;4994720;28;113044;-72
2023/05/16 08:03:35;;;;;;;12.63;11.40;;;;;;;13.56;81.83;98525.66;5005413;28;102687;-72
2023/05/16 08:06:03;;;;;;;12.67;11.40;;;;;;;13.95;81.84;98522.97;5003428;28;103216;-73
2023/05/16 08:08:31;;;;;;;11.57;10.43;;;;;;;14.02;80.81;98528.56;5011738;28;103235;-72
2023/05/16 08:11:01;;;;;;;11.23;10.10;;;;;;;14.31;81.28;98521.50;5007081;28;104183;-72
2023/05/16 08:13:30;;;;;;;12.00;10.90;;;;;;;13.68;81.05;98519.25;5007002;28;102562;-72
2023/05/16 08:15:59;;;;;;;11.83;10.70;;;;;;;13.83;80.18;98520.56;5005435;28;102764;-72
2023/05/16 08:18:27;;;;;;;11.43;10.33;;;;;;;13.99;80.80;98528.84;5001124;28;103417;-72
2023/05/16 08:20:55;;;;;;;11.63;10.50;;;;;;;13.85;81.22;98526.56;4996142;28;104475;-72
2023/05/16 08:23:23;;;;;;;13.33;11.93;;;;;;;13.68;80.61;98533.38;5004974;28;102594;-72
2023/05/16 08:25:53;;;;;;;14.83;13.37;;;;;;;13.32;83.20;98533.91;4990833;28;103270;-72
2023/05/16 08:28:21;;;;;;;14.27;12.73;;;;;;;13.43;83.84;98536.47;5003150;28;103101;-73
2023/05/16 08:30:49;;;;;;;15.13;13.63;;;;;;;13.16;83.83;98545.00;5003248;28;103210;-72
2023/05/16 08:33:18;;;;;;;16.83;15.13;;;;;;;13.11;84.82;98539.22;4985378;28;102739;-72
2023/05/16 08:35:48;;;;;;;18.47;15.33;;;;;;;13.29;84.88;98545.63;5012451;28;102996;-72
2023/05/16 08:38:16;;;;;;;17.73;15.83;;;;;;;13.49;83.75;98546.56;5008201;28;103467;-72
2023/05/16 08:40:44;;;;;;;17.17;15.47;;;;;;;13.29;85.09;98542.97;5009495;28;103103;-72
2023/05/16 08:43:12;;;;;;;16.63;14.93;;;;;;;13.40;85.49;98541.19;5008200;28;102926;-72
2023/05/16 08:45:40;;;;;;;19.57;16.57;;;;;;;13.19;85.25;98547.34;5003903;28;102915;-71
2023/05/16 08:48:10;;;;;;;20.00;17.63;;;;;;;13.33;85.48;98546.22;5001086;28;103501;-72
2023/05/16 08:50:42;;;;;;;18.77;15.90;;;;;;;13.13;86.05;98547.91;4998627;28;103732;-72
2023/05/16 08:53:13;;;;;;;18.23;16.33;;;;;;;13.57;85.58;98545.88;5009208;28;102967;-72
2023/05/16 08:55:42;;;;;;;22.67;17.33;;;;;;;13.50;85.31;98552.72;4990130;28;103201;-72
2023/05/16 08:58:13;;;;;;;18.93;16.93;;;;;;;13.19;86.11;98559.81;4992804;28;103582;-72
2023/05/16 09:00:44;;;;;;;19.27;16.30;;;;;;;13.50;85.74;98553.53;5010437;28;104282;-72
2023/05/16 09:03:14;;;;;;;19.93;17.77;;;;;;;13.50;87.32;98564.13;5005564;28;102647;-72
2023/05/16 09:05:43;;;;;;;22.27;17.43;;;;;;;13.66;84.88;98556.56;4999600;28;102703;-72
2023/05/16 09:08:11;;;;;;;18.83;16.73;;;;;;;13.73;85.12;98560.34;4994235;28;103321;-72
2023/05/16 09:10:39;;;;;;;19.80;17.27;;;;;;;13.74;85.28;98561.19;5012311;28;103095;-72
2023/05/16 09:13:07;;;;;;;21.57;18.40;;;;;;;13.57;85.64;98556.50;4998851;28;102773;-72
2023/05/16 09:15:35;;;;;;;19.97;17.87;;;;;;;13.55;85.40;98558.47;4999806;28;102608;-72
2023/05/16 09:18:04;;;;;;;24.57;18.67;;;;;;;13.15;87.93;98558.38;5005221;28;103229;-72
2023/05/16 09:20:32;;;;;;;23.53;19.93;;;;;;;13.01;88.21;98562.16;5004837;28;102979;-72
2023/05/16 09:23:02;;;;;;;20.40;18.10;;;;;;;13.52;86.63;98556.06;4991930;28;102655;-72
2023/05/16 09:25:31;;;;;;;24.90;20.27;;;;;;;13.55;86.43;98555.81;5008324;28;102643;-72
2023/05/16 09:28:02;;;;;;;21.90;19.50;;;;;;;13.50;86.43;98547.41;4997175;28;114717;-72
2023/05/16 09:30:32;;;;;;;22.23;19.87;;;;;;;13.35;87.26;98554.88;5005052;28;103035;-72
2023/05/16 09:33:00;;;;;;;25.03;21.17;;;;;;;13.44;87.03;98553.25;5011447;28;102704;-72
2023/05/16 09:35:28;;;;;;;24.80;20.73;;;;;;;14.04;84.80;98558.50;5011785;28;102596;-72
2023/05/16 09:38:00;;;;;;;22.10;19.73;;;;;;;14.51;84.68;98555.09;5000283;28;103373;-72
2023/05/16 09:40:28;;;;;;;23.67;20.80;;;;;;;14.51;83.11;98557.75;5004678;28;103353;-72
2023/05/16 09:43:03;;;;;;;22.80;20.20;;;;;;;14.88;82.98;98555.25;5000551;28;102732;-70
2023/05/16 09:45:32;;;;;;;23.13;20.27;;;;;;;14.23;81.37;98553.22;4986402;28;102688;-70
2023/05/16 09:48:05;;;;;;;23.87;20.43;;;;;;;13.96;83.04;98555.69;4987939;28;103415;-71
2023/05/16 09:50:34;;;;;;;24.30;19.30;;;;;;;14.17;84.23;98550.28;5006570;28;103153;-70
2023/05/16 09:53:06;;;;;;;24.23;21.37;;;;;;;14.02;84.64;98544.50;5009157;28;102688;-72
2023/05/16 09:55:34;;;;;;;28.63;20.50;;;;;;;14.16;84.02;98546.78;5004377;28;102668;-72
2023/05/16 09:58:01;;;;;;;23.27;19.30;;;;;;;13.89;85.17;98543.94;5006594;28;120016;-72
2023/05/16 10:00:31;;;;;;;25.37;21.33;;;;;;;14.28;84.03;98545.69;4995914;28;106189;-72
2023/05/16 10:03:03;;;;;;;27.43;21.97;;;;;;;14.27;84.43;98538.69;5006174;28;102957;-71
2023/05/16 10:05:33;;;;;;;26.60;20.47;;;;;;;15.06;82.09;98531.44;4979552;28;102842;-72
2023/05/16 10:08:02;;;;;;;26.73;20.50;;;;;;;14.67;81.22;98545.75;4990558;28;103952;-72
2023/05/16 10:10:37;;;;;;;22.63;20.17;;;;;;;14.90;80.88;98544.50;4988884;28;106013;-72
2023/05/16 10:13:07;;;;;;;21.63;18.07;;;;;;;14.57;81.85;98550.25;5001862;28;102921;-73
2023/05/16 10:15:37;;;;;;;22.43;19.00;;;;;;;14.45;81.21;98546.88;4997334;28;102783;-73
2023/05/16 10:18:10;;;;;;;23.53;19.07;;;;;;;15.21;79.68;98545.97;4974862;28;105552;-73
2023/05/16 10:20:41;;;;;;;23.00;19.03;;;;;;;14.90;80.14;98542.66;4992694;28;103050;-72
2023/05/16 10:23:15;;;;;;;21.60;18.10;;;;;;;14.66;80.46;98542.25;5007240;28;103341;-72
2023/05/16 10:25:46;;;;;;;22.90;17.83;;;;;;;15.02;79.18;98535.34;4992260;28;102683;-72
2023/05/16 10:28:15;;;;;;;22.33;18.70;;;;;;;14.96;79.37;98530.63;5006680;28;103337;-75
2023/05/16 10:30:45;;;;;;;21.30;16.90;;;;;;;15.14;80.43;98541.34;4992938;28;105865;-75
2023/05/16 10:33:14;;;;;;;22.97;18.43;;;;;;;15.06;79.84;98536.75;4990204;28;102932;-79
2023/05/16 10:35:42;;;;;;;19.97;17.43;;;;;;;15.24;80.29;98551.00;5004587;28;102662;-78
2023/05/16 10:38:12;;;;;;;21.23;18.10;;;;;;;15.25;79.57;98546.50;5007611;28;103277;-73
2023/05/16 10:40:45;;;;;;;18.97;16.97;;;;;;;14.63;79.72;98545.19;5007099;27;111722;-76
2023/05/16 10:43:23;;;;;;;22.37;16.37;;;;;;;14.18;81.48;98547.47;4996955;28;103129;-78
2023/05/16 10:45:55;;;;;;;23.73;17.53;;;;;;;14.18;82.39;98546.63;5007867;28;102928;-77
2023/05/16 10:48:31;;;;;;;19.70;16.57;;;;;;;14.26;82.68;98552.94;4988684;28;114840;-79
2023/05/16 10:51:01;;;;;;;16.63;14.60;;;;;;;14.47;82.73;98555.53;4989082;28;105781;-79
2023/05/16 10:53:31;;;;;;;19.23;15.17;;;;;;;13.84;83.87;98562.91;5005676;28;102639;-76
2023/05/16 10:56:11;;;;;;;19.97;15.43;;;;;;;13.61;86.10;98549.97;5001238;28;104352;-73
2023/05/16 10:58:43;;;;;;;18.03;15.13;;;;;;;13.88;85.30;98552.84;4987531;28;103417;-73
2023/05/16 11:01:45;;;;;;;19.73;15.43;;;;;;;13.97;86.95;98546.75;4999030;28;106315;-72
2023/05/16 11:04:15;;;;;;;18.40;15.07;;;;;;;14.17;85.45;98559.09;4987942;28;103090;-74
2023/05/16 11:06:46;;;;;;;16.63;13.90;;;;;;;13.43;87.76;98556.84;4996191;28;102885;-73
2023/05/16 11:09:26;;;;;;;18.00;14.93;;;;;;;13.81;88.38;98562.34;4996225;28;103375;-73
2023/05/16 11:11:58;;;;;;;16.80;13.50;;;;;;;13.45;89.72;98570.81;5001384;28;103422;-73
2023/05/16 11:14:30;;;;;;;13.40;11.67;;;;;;;12.99;91.13;98568.56;4976105;28;102791;-74
2023/05/16 11:17:03;;;;;;;12.90;11.13;;;;;;;13.03;91.82;98576.13;5004708;28;102778;-74
2023/05/16 11:19:34;;;;;;;11.73;9.77;;;;;;;12.80;92.75;98578.03;4972692;28;106063;-74